sensor_id;sensor_type;location;lat;lon;timestamp;pressure;altitude;pressure_sealevel;temperature;humidity
46291;BME280;32023;44.444;26.006;2022-09-09T00:02:03;100404.66;;;20.98;53.47
46291;BME280;32023;44.444;26.006;2022-09-09T00:04:34;100399.38;;;20.96;53.27
46291;BME280;32023;44.444;26.006;2022-09-09T00:10:16;100417.19;;;20.92;53.13
46291;BME280;32023;44.444;26.006;2022-09-09T00:16:03;100415.19;;;20.92;54.06
46291;BME280;32023;44.444;26.006;2022-09-09T00:21:17;100420.28;;;20.90;54.34
46291;BME280;32023;44.444;26.006;2022-09-09T00:23:55;100418.16;;;20.87;54.97
46291;BME280;32023;44.444;26.006;2022-09-09T00:29:05;100403.00;;;20.80;55.39
46291;BME280;32023;44.444;26.006;2022-09-09T00:31:45;100411.50;;;20.66;56.11
46291;BME280;32023;44.444;26.006;2022-09-09T00:34:22;100416.78;;;20.67;56.10
46291;BME280;32023;44.444;26.006;2022-09-09T00:36:52;100412.69;;;20.65;56.26
46291;BME280;32023;44.444;26.006;2022-09-09T00:39:33;100406.41;;;20.59;56.70
46291;BME280;32023;44.444;26.006;2022-09-09T00:42:25;100411.16;;;20.50;57.08
46291;BME280;32023;44.444;26.006;2022-09-09T00:47:53;100400.59;;;20.39;57.80
46291;BME280;32023;44.444;26.006;2022-09-09T00:56:24;100402.78;;;20.19;59.41
46291;BME280;32023;44.444;26.006;2022-09-09T01:01:47;100401.75;;;20.07;59.99
46291;BME280;32023;44.444;26.006;2022-09-09T01:04:21;100404.03;;;20.05;60.21
46291;BME280;32023;44.444;26.006;2022-09-09T01:07:02;100409.47;;;20.01;60.41
46291;BME280;32023;44.444;26.006;2022-09-09T01:09:59;100399.53;;;19.95;60.75
46291;BME280;32023;44.444;26.006;2022-09-09T01:12:47;100408.09;;;19.90;60.88
46291;BME280;32023;44.444;26.006;2022-09-09T01:15:27;100408.69;;;19.87;60.57
46291;BME280;32023;44.444;26.006;2022-09-09T01:18:10;100411.13;;;19.80;61.07
46291;BME280;32023;44.444;26.006;2022-09-09T01:23:45;100400.53;;;19.68;61.53
46291;BME280;32023;44.444;26.006;2022-09-09T01:26:24;100389.81;;;19.62;61.65
46291;BME280;32023;44.444;26.006;2022-09-09T01:28:52;100388.81;;;19.58;61.72
46291;BME280;32023;44.444;26.006;2022-09-09T01:33:56;100394.03;;;19.51;62.45
46291;BME280;32023;44.444;26.006;2022-09-09T01:36:38;100392.38;;;19.50;62.23
46291;BME280;32023;44.444;26.006;2022-09-09T01:39:07;100387.44;;;19.47;62.43
46291;BME280;32023;44.444;26.006;2022-09-09T01:41:33;100384.13;;;19.45;62.53
46291;BME280;32023;44.444;26.006;2022-09-09T01:44:02;100383.63;;;19.43;62.69
46291;BME280;32023;44.444;26.006;2022-09-09T01:46:29;100393.75;;;19.39;63.01
46291;BME280;32023;44.444;26.006;2022-09-09T01:48:57;100391.59;;;19.36;63.08
46291;BME280;32023;44.444;26.006;2022-09-09T01:51:25;100391.06;;;19.34;63.42
46291;BME280;32023;44.444;26.006;2022-09-09T01:53:51;100388.28;;;19.34;63.76
46291;BME280;32023;44.444;26.006;2022-09-09T01:56:47;100403.22;;;19.29;64.25
46291;BME280;32023;44.444;26.006;2022-09-09T02:02:17;100402.31;;;19.20;64.74
46291;BME280;32023;44.444;26.006;2022-09-09T02:04:52;100402.41;;;19.15;64.54
46291;BME280;32023;44.444;26.006;2022-09-09T02:07:41;100409.56;;;19.07;64.72
46291;BME280;32023;44.444;26.006;2022-09-09T02:13:18;100403.09;;;18.98;65.03
46291;BME280;32023;44.444;26.006;2022-09-09T02:16:08;100404.56;;;18.96;65.17
46291;BME280;32023;44.444;26.006;2022-09-09T02:18:42;100409.31;;;18.95;65.26
46291;BME280;32023;44.444;26.006;2022-09-09T02:21:11;100403.56;;;18.92;65.40
46291;BME280;32023;44.444;26.006;2022-09-09T02:23:42;100406.63;;;18.90;65.44
46291;BME280;32023;44.444;26.006;2022-09-09T02:26:11;100404.16;;;18.89;65.37
46291;BME280;32023;44.444;26.006;2022-09-09T02:28:41;100403.97;;;18.85;65.65
46291;BME280;32023;44.444;26.006;2022-09-09T02:31:11;100403.97;;;18.85;65.78
46291;BME280;32023;44.444;26.006;2022-09-09T02:33:42;100406.25;;;18.83;65.97
46291;BME280;32023;44.444;26.006;2022-09-09T02:36:12;100400.06;;;18.72;66.70
46291;BME280;32023;44.444;26.006;2022-09-09T02:38:47;100404.19;;;18.75;66.89
46291;BME280;32023;44.444;26.006;2022-09-09T02:41:35;100406.16;;;18.74;67.16
46291;BME280;32023;44.444;26.006;2022-09-09T02:44:09;100409.56;;;18.71;67.41
46291;BME280;32023;44.444;26.006;2022-09-09T02:47:05;100398.22;;;18.68;67.63
46291;BME280;32023;44.444;26.006;2022-09-09T02:57:49;100396.88;;;18.52;67.87
46291;BME280;32023;44.444;26.006;2022-09-09T03:00:42;100395.53;;;18.49;68.44
46291;BME280;32023;44.444;26.006;2022-09-09T03:03:09;100390.25;;;18.48;68.70
46291;BME280;32023;44.444;26.006;2022-09-09T03:05:44;100398.63;;;18.48;68.73
46291;BME280;32023;44.444;26.006;2022-09-09T03:08:11;100402.56;;;18.47;68.88
46291;BME280;32023;44.444;26.006;2022-09-09T03:10:39;100399.03;;;18.41;69.18
46291;BME280;32023;44.444;26.006;2022-09-09T03:13:06;100398.84;;;18.38;69.46
46291;BME280;32023;44.444;26.006;2022-09-09T03:15:33;100393.56;;;18.36;69.88
46291;BME280;32023;44.444;26.006;2022-09-09T03:18:00;100399.47;;;18.35;70.35
46291;BME280;32023;44.444;26.006;2022-09-09T03:20:29;100403.38;;;18.34;70.58
46291;BME280;32023;44.444;26.006;2022-09-09T03:22:56;100399.47;;;18.35;70.60
46291;BME280;32023;44.444;26.006;2022-09-09T03:25:23;100405.03;;;18.35;70.79
46291;BME280;32023;44.444;26.006;2022-09-09T03:27:51;100400.59;;;18.34;70.86
46291;BME280;32023;44.444;26.006;2022-09-09T03:30:21;100401.72;;;18.33;70.80
46291;BME280;32023;44.444;26.006;2022-09-09T03:32:48;100394.53;;;18.32;70.92
46291;BME280;32023;44.444;26.006;2022-09-09T03:35:17;100399.25;;;18.31;70.77
46291;BME280;32023;44.444;26.006;2022-09-09T03:37:44;100402.88;;;18.32;70.76
46291;BME280;32023;44.444;26.006;2022-09-09T03:40:11;100405.66;;;18.32;70.68
46291;BME280;32023;44.444;26.006;2022-09-09T03:42:41;100404.84;;;18.31;70.45
46291;BME280;32023;44.444;26.006;2022-09-09T03:45:09;100405.97;;;18.30;70.33
46291;BME280;32023;44.444;26.006;2022-09-09T03:47:39;100407.09;;;18.29;70.31
46291;BME280;32023;44.444;26.006;2022-09-09T03:50:20;100395.13;;;18.28;70.19
46291;BME280;32023;44.444;26.006;2022-09-09T03:52:47;100393.78;;;18.26;70.33
46291;BME280;32023;44.444;26.006;2022-09-09T03:55:14;100386.88;;;18.23;70.27
46291;BME280;32023;44.444;26.006;2022-09-09T03:57:41;100391.72;;;18.18;70.42
46291;BME280;32023;44.444;26.006;2022-09-09T04:00:08;100388.22;;;18.12;71.14
46291;BME280;32023;44.444;26.006;2022-09-09T04:06:00;100377.16;;;18.07;73.00
46291;BME280;32023;44.444;26.006;2022-09-09T04:08:28;100369.31;;;18.09;73.23
46291;BME280;32023;44.444;26.006;2022-09-09T04:13:57;100381.31;;;18.23;72.87
46291;BME280;32023;44.444;26.006;2022-09-09T04:16:23;100390.91;;;18.31;72.67
46291;BME280;32023;44.444;26.006;2022-09-09T04:18:52;100349.28;;;18.21;72.12
46291;BME280;32023;44.444;26.006;2022-09-09T04:21:19;100378.25;;;18.47;71.24
46291;BME280;32023;44.444;26.006;2022-09-09T04:23:46;100381.19;;;18.56;70.57
46291;BME280;32023;44.444;26.006;2022-09-09T04:26:12;100383.25;;;18.64;69.95
46291;BME280;32023;44.444;26.006;2022-09-09T04:28:39;100379.19;;;18.70;69.57
46291;BME280;32023;44.444;26.006;2022-09-09T04:31:12;100394.06;;;18.79;69.12
46291;BME280;32023;44.444;26.006;2022-09-09T04:33:53;100404.16;;;18.89;68.40
46291;BME280;32023;44.444;26.006;2022-09-09T04:36:20;100401.44;;;18.97;68.23
46291;BME280;32023;44.444;26.006;2022-09-09T04:38:47;100404.00;;;19.07;67.86
46291;BME280;32023;44.444;26.006;2022-09-09T04:41:15;100407.38;;;19.18;67.34
46291;BME280;32023;44.444;26.006;2022-09-09T04:43:44;100400.22;;;19.26;67.49
46291;BME280;32023;44.444;26.006;2022-09-09T04:46:11;100395.50;;;19.35;67.44
46291;BME280;32023;44.444;26.006;2022-09-09T04:48:38;100394.78;;;19.43;67.39
46291;BME280;32023;44.444;26.006;2022-09-09T04:51:08;100399.91;;;19.49;67.37
46291;BME280;32023;44.444;26.006;2022-09-09T04:53:36;100400.28;;;19.56;67.09
46291;BME280;32023;44.444;26.006;2022-09-09T04:56:30;100412.19;;;19.62;66.57
46291;BME280;32023;44.444;26.006;2022-09-09T04:58:59;100405.81;;;19.70;66.24
46291;BME280;32023;44.444;26.006;2022-09-09T05:01:27;100410.00;;;19.81;65.73
46291;BME280;32023;44.444;26.006;2022-09-09T05:03:58;100396.91;;;19.90;64.87
46291;BME280;32023;44.444;26.006;2022-09-09T05:06:25;100399.53;;;19.95;64.09
46291;BME280;32023;44.444;26.006;2022-09-09T05:08:54;100396.63;;;20.00;63.51
46291;BME280;32023;44.444;26.006;2022-09-09T05:11:32;100405.84;;;20.09;62.53
46291;BME280;32023;44.444;26.006;2022-09-09T05:14:12;100406.72;;;20.18;61.88
46291;BME280;32023;44.444;26.006;2022-09-09T05:16:47;100413.72;;;20.30;61.32
46291;BME280;32023;44.444;26.006;2022-09-09T05:19:30;100401.06;;;20.41;60.69
46291;BME280;32023;44.444;26.006;2022-09-09T05:22:00;100397.97;;;20.42;60.14
46291;BME280;32023;44.444;26.006;2022-09-09T05:27:47;100394.56;;;20.71;58.74
46291;BME280;32023;44.444;26.006;2022-09-09T06:07:41;100365.41;;;22.80;48.65
46291;BME280;32023;44.444;26.006;2022-09-09T06:10:16;100376.38;;;22.94;47.57
46291;BME280;32023;44.444;26.006;2022-09-09T06:37:05;100400.53;;;24.75;41.50
46291;BME280;32023;44.444;26.006;2022-09-09T06:42:41;100392.44;;;24.98;40.99
46291;BME280;32023;44.444;26.006;2022-09-09T07:11:19;100375.75;;;27.17;36.27
46291;BME280;32023;44.444;26.006;2022-09-09T07:14:14;100379.41;;;27.37;35.21
46291;BME280;32023;44.444;26.006;2022-09-09T07:17:39;100376.53;;;27.52;34.88
46291;BME280;32023;44.444;26.006;2022-09-09T07:20:08;100379.75;;;27.73;34.46
46291;BME280;32023;44.444;26.006;2022-09-09T07:22:44;100379.72;;;27.93;34.06
46291;BME280;32023;44.444;26.006;2022-09-09T07:25:25;100381.50;;;28.01;33.91
46291;BME280;32023;44.444;26.006;2022-09-09T07:28:06;100383.31;;;28.09;33.49
46291;BME280;32023;44.444;26.006;2022-09-09T07:31:21;100391.63;;;28.02;34.00
46291;BME280;32023;44.444;26.006;2022-09-09T07:33:49;100393.88;;;28.12;33.82
46291;BME280;32023;44.444;26.006;2022-09-09T07:36:20;100402.06;;;28.40;33.20
46291;BME280;32023;44.444;26.006;2022-09-09T07:38:53;100388.00;;;28.69;33.09
46291;BME280;32023;44.444;26.006;2022-09-09T07:41:31;100384.69;;;28.94;32.73
46291;BME280;32023;44.444;26.006;2022-09-09T07:44:07;100382.84;;;29.05;32.37
46291;BME280;32023;44.444;26.006;2022-09-09T07:46:34;100389.59;;;28.97;32.28
46291;BME280;32023;44.444;26.006;2022-09-09T07:49:02;100391.38;;;29.08;32.19
46291;BME280;32023;44.444;26.006;2022-09-09T07:51:34;100392.47;;;29.27;32.46
46291;BME280;32023;44.444;26.006;2022-09-09T07:54:04;100387.03;;;29.44;32.74
46291;BME280;32023;44.444;26.006;2022-09-09T07:56:31;100395.41;;;29.63;31.88
46291;BME280;32023;44.444;26.006;2022-09-09T07:59:01;100396.81;;;29.84;31.25
46291;BME280;32023;44.444;26.006;2022-09-09T08:01:35;100405.59;;;30.01;30.98
46291;BME280;32023;44.444;26.006;2022-09-09T08:04:06;100408.59;;;30.19;30.55
46291;BME280;32023;44.444;26.006;2022-09-09T08:06:40;100406.31;;;30.35;30.61
46291;BME280;32023;44.444;26.006;2022-09-09T08:09:11;100401.63;;;30.53;30.27
46291;BME280;32023;44.444;26.006;2022-09-09T08:11:38;100402.44;;;30.54;30.01
46291;BME280;32023;44.444;26.006;2022-09-09T08:14:06;100389.00;;;30.47;30.46
46291;BME280;32023;44.444;26.006;2022-09-09T08:16:39;100378.63;;;30.73;29.75
46291;BME280;32023;44.444;26.006;2022-09-09T08:19:22;100377.13;;;30.89;29.13
46291;BME280;32023;44.444;26.006;2022-09-09T08:22:00;100382.94;;;31.07;28.85
46291;BME280;32023;44.444;26.006;2022-09-09T08:24:31;100390.41;;;31.36;28.26
46291;BME280;32023;44.444;26.006;2022-09-09T08:27:01;100371.81;;;31.57;28.09
46291;BME280;32023;44.444;26.006;2022-09-09T08:29:40;100380.00;;;31.69;28.36
46291;BME280;32023;44.444;26.006;2022-09-09T08:32:36;100373.06;;;31.77;28.14
46291;BME280;32023;44.444;26.006;2022-09-09T08:35:09;100374.78;;;32.06;27.93
46291;BME280;32023;44.444;26.006;2022-09-09T08:43:41;100358.94;;;32.51;27.47
46291;BME280;32023;44.444;26.006;2022-09-09T08:51:44;100352.84;;;32.70;26.99
46291;BME280;32023;44.444;26.006;2022-09-09T08:54:23;100351.59;;;32.85;27.40
46291;BME280;32023;44.444;26.006;2022-09-09T08:59:29;100346.63;;;33.07;26.59
46291;BME280;32023;44.444;26.006;2022-09-09T09:12:45;100318.69;;;33.61;25.88
46291;BME280;32023;44.444;26.006;2022-09-09T09:15:23;100339.72;;;33.95;25.45
46291;BME280;32023;44.444;26.006;2022-09-09T09:24:27;100310.97;;;34.20;24.74
46291;BME280;32023;44.444;26.006;2022-09-09T09:33:26;100330.22;;;34.57;24.27
46291;BME280;32023;44.444;26.006;2022-09-09T09:36:02;100334.06;;;34.84;23.71
46291;BME280;32023;44.444;26.006;2022-09-09T09:38:50;100330.34;;;34.87;23.44
46291;BME280;32023;44.444;26.006;2022-09-09T09:41:41;100335.66;;;34.89;23.31
46291;BME280;32023;44.444;26.006;2022-09-09T09:44:30;100320.22;;;34.79;22.92
46291;BME280;32023;44.444;26.006;2022-09-09T09:47:12;100313.09;;;35.28;23.05
46291;BME280;32023;44.444;26.006;2022-09-09T09:50:00;100323.81;;;36.35;21.63
46291;BME280;32023;44.444;26.006;2022-09-09T09:52:31;100322.19;;;36.34;21.51
46291;BME280;32023;44.444;26.006;2022-09-09T09:54:59;100313.53;;;36.60;21.59
46291;BME280;32023;44.444;26.006;2022-09-09T09:57:29;100317.44;;;36.93;21.45
46291;BME280;32023;44.444;26.006;2022-09-09T10:00:25;100311.19;;;37.38;21.47
46291;BME280;32023;44.444;26.006;2022-09-09T10:02:52;100312.22;;;37.83;20.91
46291;BME280;32023;44.444;26.006;2022-09-09T10:05:27;100315.63;;;37.78;20.50
46291;BME280;32023;44.444;26.006;2022-09-09T10:08:23;100312.09;;;38.39;19.68
46291;BME280;32023;44.444;26.006;2022-09-09T10:11:27;100322.88;;;38.19;19.64
46291;BME280;32023;44.444;26.006;2022-09-09T10:14:20;100317.09;;;37.31;21.17
46291;BME280;32023;44.444;26.006;2022-09-09T10:17:27;100325.59;;;36.29;22.01
46291;BME280;32023;44.444;26.006;2022-09-09T10:23:32;100324.25;;;35.22;23.01
46291;BME280;32023;44.444;26.006;2022-09-09T10:26:31;100327.94;;;34.38;24.07
46291;BME280;32023;44.444;26.006;2022-09-09T10:29:23;100325.88;;;33.90;24.46
46291;BME280;32023;44.444;26.006;2022-09-09T10:38:47;100311.28;;;33.74;25.14
46291;BME280;32023;44.444;26.006;2022-09-09T10:41:24;100311.22;;;33.81;25.30
46291;BME280;32023;44.444;26.006;2022-09-09T10:50:33;100303.03;;;34.79;23.89
46291;BME280;32023;44.444;26.006;2022-09-09T10:53:33;100304.09;;;35.30;23.59
46291;BME280;32023;44.444;26.006;2022-09-09T10:56:16;100301.47;;;35.72;22.75
46291;BME280;32023;44.444;26.006;2022-09-09T10:58:58;100305.53;;;35.45;22.98
46291;BME280;32023;44.444;26.006;2022-09-09T11:02:02;100299.59;;;35.28;23.13
46291;BME280;32023;44.444;26.006;2022-09-09T11:13:46;100290.38;;;35.14;23.74
46291;BME280;32023;44.444;26.006;2022-09-09T11:16:36;100294.16;;;35.38;23.94
46291;BME280;32023;44.444;26.006;2022-09-09T11:21:52;100289.00;;;35.56;23.59
46291;BME280;32023;44.444;26.006;2022-09-09T11:27:29;100290.78;;;35.46;22.95
46291;BME280;32023;44.444;26.006;2022-09-09T11:38:47;100282.13;;;35.50;23.05
46291;BME280;32023;44.444;26.006;2022-09-09T11:41:20;100277.53;;;35.56;24.04
46291;BME280;32023;44.444;26.006;2022-09-09T11:43:49;100276.25;;;35.60;23.92
46291;BME280;32023;44.444;26.006;2022-09-09T11:46:20;100268.47;;;35.61;23.55
46291;BME280;32023;44.444;26.006;2022-09-09T11:52:46;100280.97;;;35.44;23.36
46291;BME280;32023;44.444;26.006;2022-09-09T12:05:14;100259.16;;;34.55;24.79
46291;BME280;32023;44.444;26.006;2022-09-09T12:20:39;100232.75;;;34.78;24.21
46291;BME280;32023;44.444;26.006;2022-09-09T12:34:22;100218.59;;;34.60;24.90
46291;BME280;32023;44.444;26.006;2022-09-09T12:37:16;100220.19;;;34.68;26.22
46291;BME280;32023;44.444;26.006;2022-09-09T12:40:28;100220.25;;;34.61;26.38
46291;BME280;32023;44.444;26.006;2022-09-09T12:43:22;100217.63;;;34.40;25.90
46291;BME280;32023;44.444;26.006;2022-09-09T12:46:36;100217.88;;;34.15;25.68
46291;BME280;32023;44.444;26.006;2022-09-09T12:49:32;100219.28;;;33.93;25.28
46291;BME280;32023;44.444;26.006;2022-09-09T12:52:08;100187.19;;;33.75;25.53
46291;BME280;32023;44.444;26.006;2022-09-09T12:54:46;100216.50;;;33.86;26.68
46291;BME280;32023;44.444;26.006;2022-09-09T13:00:55;100211.00;;;33.51;28.24
46291;BME280;32023;44.444;26.006;2022-09-09T13:03:50;100199.75;;;33.29;28.55
46291;BME280;32023;44.444;26.006;2022-09-09T13:07:04;100199.44;;;33.06;29.17
46291;BME280;32023;44.444;26.006;2022-09-09T13:09:55;100191.81;;;32.89;30.20
46291;BME280;32023;44.444;26.006;2022-09-09T13:12:55;100197.19;;;32.69;29.94
46291;BME280;32023;44.444;26.006;2022-09-09T13:16:18;100190.28;;;32.53;28.78
46291;BME280;32023;44.444;26.006;2022-09-09T13:19:21;100191.56;;;32.37;29.46
46291;BME280;32023;44.444;26.006;2022-09-09T13:28:22;100179.81;;;31.89;31.04
46291;BME280;32023;44.444;26.006;2022-09-09T13:30:58;100182.25;;;31.77;31.41
46291;BME280;32023;44.444;26.006;2022-09-09T13:33:44;100177.00;;;31.65;32.09
46291;BME280;32023;44.444;26.006;2022-09-09T13:36:38;100173.72;;;31.56;32.77
46291;BME280;32023;44.444;26.006;2022-09-09T13:39:17;100179.78;;;31.50;31.58
46291;BME280;32023;44.444;26.006;2022-09-09T13:41:46;100183.03;;;31.42;31.49
46291;BME280;32023;44.444;26.006;2022-09-09T13:44:27;100174.91;;;31.51;31.52
46291;BME280;32023;44.444;26.006;2022-09-09T13:47:21;100175.72;;;31.51;31.58
46291;BME280;32023;44.444;26.006;2022-09-09T13:49:56;100170.84;;;31.48;31.25
46291;BME280;32023;44.444;26.006;2022-09-09T13:52:32;100180.59;;;31.47;31.22
46291;BME280;32023;44.444;26.006;2022-09-09T13:55:02;100178.19;;;31.46;31.35
46291;BME280;32023;44.444;26.006;2022-09-09T13:57:28;100176.53;;;31.41;31.87
46291;BME280;32023;44.444;26.006;2022-09-09T14:00:00;100179.38;;;31.34;32.86
46291;BME280;32023;44.444;26.006;2022-09-09T14:02:30;100169.19;;;31.19;32.81
46291;BME280;32023;44.444;26.006;2022-09-09T14:05:13;100170.78;;;31.06;32.65
46291;BME280;32023;44.444;26.006;2022-09-09T14:07:42;100169.91;;;30.95;33.60
46291;BME280;32023;44.444;26.006;2022-09-09T14:10:15;100172.72;;;30.88;33.89
46291;BME280;32023;44.444;26.006;2022-09-09T14:12:44;100164.19;;;30.81;34.05
46291;BME280;32023;44.444;26.006;2022-09-09T14:15:12;100162.53;;;30.73;33.73
46291;BME280;32023;44.444;26.006;2022-09-09T14:17:42;100159.25;;;30.67;33.58
46291;BME280;32023;44.444;26.006;2022-09-09T14:20:09;100150.69;;;30.64;33.05
46291;BME280;32023;44.444;26.006;2022-09-09T14:22:38;100152.72;;;30.59;33.40
46291;BME280;32023;44.444;26.006;2022-09-09T14:25:07;100146.19;;;30.55;33.30
46291;BME280;32023;44.444;26.006;2022-09-09T14:27:34;100145.78;;;30.53;33.06
46291;BME280;32023;44.444;26.006;2022-09-09T14:30:00;100137.66;;;30.52;33.19
46291;BME280;32023;44.444;26.006;2022-09-09T14:32:27;100145.78;;;30.50;33.11
46291;BME280;32023;44.444;26.006;2022-09-09T14:34:53;100133.97;;;30.44;33.51
46291;BME280;32023;44.444;26.006;2022-09-09T14:37:25;100143.66;;;30.36;33.56
46291;BME280;32023;44.444;26.006;2022-09-09T14:39:55;100150.09;;;30.26;33.75
46291;BME280;32023;44.444;26.006;2022-09-09T14:42:22;100152.50;;;30.17;34.03
46291;BME280;32023;44.444;26.006;2022-09-09T14:45:06;100150.81;;;30.05;34.29
46291;BME280;32023;44.444;26.006;2022-09-09T14:47:32;100156.41;;;29.95;35.02
46291;BME280;32023;44.444;26.006;2022-09-09T14:50:02;100149.38;;;29.82;35.64
46291;BME280;32023;44.444;26.006;2022-09-09T14:52:31;100152.13;;;29.68;36.18
46291;BME280;32023;44.444;26.006;2022-09-09T14:54:57;100144.69;;;29.52;36.66
46291;BME280;32023;44.444;26.006;2022-09-09T14:57:24;100146.22;;;29.43;37.21
46291;BME280;32023;44.444;26.006;2022-09-09T14:59:50;100148.16;;;29.32;37.79
46291;BME280;32023;44.444;26.006;2022-09-09T15:02:18;100152.84;;;29.17;38.14
46291;BME280;32023;44.444;26.006;2022-09-09T15:04:50;100150.25;;;29.01;38.33
46291;BME280;32023;44.444;26.006;2022-09-09T15:07:19;100148.94;;;28.92;38.81
46291;BME280;32023;44.444;26.006;2022-09-09T15:09:50;100157.72;;;28.80;39.18
46291;BME280;32023;44.444;26.006;2022-09-09T15:12:24;100153.84;;;28.61;39.76
46291;BME280;32023;44.444;26.006;2022-09-09T15:14:58;100158.97;;;28.52;39.98
46291;BME280;32023;44.444;26.006;2022-09-09T15:17:33;100164.13;;;28.43;40.24
46291;BME280;32023;44.444;26.006;2022-09-09T15:20:02;100162.78;;;28.34;40.55
46291;BME280;32023;44.444;26.006;2022-09-09T15:22:35;100166.75;;;28.29;41.00
46291;BME280;32023;44.444;26.006;2022-09-09T15:25:10;100168.28;;;28.23;41.46
46291;BME280;32023;44.444;26.006;2022-09-09T15:27:43;100170.25;;;28.19;41.52
46291;BME280;32023;44.444;26.006;2022-09-09T15:30:12;100169.78;;;28.13;41.90
46291;BME280;32023;44.444;26.006;2022-09-09T15:35:29;100167.19;;;28.05;41.97
46291;BME280;32023;44.444;26.006;2022-09-09T15:38:11;100165.50;;;28.00;42.17
46291;BME280;32023;44.444;26.006;2022-09-09T15:41:28;100168.19;;;27.90;41.98
46291;BME280;32023;44.444;26.006;2022-09-09T15:46:48;100165.19;;;27.79;42.14
46291;BME280;32023;44.444;26.006;2022-09-09T15:49:40;100160.00;;;27.58;42.31
46291;BME280;32023;44.444;26.006;2022-09-09T15:52:14;100162.81;;;27.58;42.50
46291;BME280;32023;44.444;26.006;2022-09-09T15:54:40;100170.44;;;27.54;42.52
46291;BME280;32023;44.444;26.006;2022-09-09T15:57:12;100146.66;;;27.36;42.43
46291;BME280;32023;44.444;26.006;2022-09-09T16:02:48;100173.28;;;27.35;43.20
46291;BME280;32023;44.444;26.006;2022-09-09T16:05:16;100171.69;;;27.34;43.26
46291;BME280;32023;44.444;26.006;2022-09-09T16:07:43;100166.31;;;27.29;43.14
46291;BME280;32023;44.444;26.006;2022-09-09T16:10:11;100165.44;;;27.25;43.23
46291;BME280;32023;44.444;26.006;2022-09-09T16:12:39;100167.41;;;27.21;43.29
46291;BME280;32023;44.444;26.006;2022-09-09T16:15:06;100151.47;;;27.13;43.52
46291;BME280;32023;44.444;26.006;2022-09-09T16:17:34;100141.25;;;27.05;43.90
46291;BME280;32023;44.444;26.006;2022-09-09T16:20:06;100146.47;;;27.03;44.06
46291;BME280;32023;44.444;26.006;2022-09-09T16:22:35;100146.75;;;26.98;44.04
46291;BME280;32023;44.444;26.006;2022-09-09T16:25:07;100157.94;;;26.91;44.48
46291;BME280;32023;44.444;26.006;2022-09-09T16:27:44;100156.22;;;26.86;44.78
46291;BME280;32023;44.444;26.006;2022-09-09T16:30:12;100154.97;;;26.84;44.72
46291;BME280;32023;44.444;26.006;2022-09-09T16:32:39;100148.84;;;26.81;44.91
46291;BME280;32023;44.444;26.006;2022-09-09T16:35:08;100148.41;;;26.79;44.96
46291;BME280;32023;44.444;26.006;2022-09-09T16:37:48;100151.91;;;26.73;44.93
46291;BME280;32023;44.444;26.006;2022-09-09T16:40:17;100150.28;;;26.72;45.18
46291;BME280;32023;44.444;26.006;2022-09-09T16:42:44;100163.16;;;26.69;45.35
46291;BME280;32023;44.444;26.006;2022-09-09T16:45:10;100166.34;;;26.68;45.43
46291;BME280;32023;44.444;26.006;2022-09-09T16:47:40;100161.03;;;26.66;45.81
46291;BME280;32023;44.444;26.006;2022-09-09T16:50:09;100134.44;;;26.48;46.20
46291;BME280;32023;44.444;26.006;2022-09-09T16:52:36;100160.00;;;26.55;46.09
46291;BME280;32023;44.444;26.006;2022-09-09T16:55:14;100150.28;;;26.53;45.89
46291;BME280;32023;44.444;26.006;2022-09-09T16:57:40;100159.34;;;26.43;46.27
46291;BME280;32023;44.444;26.006;2022-09-09T17:00:08;100159.28;;;26.39;46.11
46291;BME280;32023;44.444;26.006;2022-09-09T17:02:34;100164.94;;;26.39;46.11
46291;BME280;32023;44.444;26.006;2022-09-09T17:05:01;100165.22;;;26.34;46.25
46291;BME280;32023;44.444;26.006;2022-09-09T17:07:47;100171.16;;;26.29;46.33
46291;BME280;32023;44.444;26.006;2022-09-09T17:10:16;100173.06;;;26.25;46.27
46291;BME280;32023;44.444;26.006;2022-09-09T17:12:50;100164.91;;;26.20;46.02
46291;BME280;32023;44.444;26.006;2022-09-09T17:15:20;100153.88;;;26.15;46.28
46291;BME280;32023;44.444;26.006;2022-09-09T17:17:47;100146.88;;;26.09;46.47
46291;BME280;32023;44.444;26.006;2022-09-09T17:20:34;100155.19;;;26.02;46.19
46291;BME280;32023;44.444;26.006;2022-09-09T17:23:11;100156.28;;;25.97;46.19
46291;BME280;32023;44.444;26.006;2022-09-09T17:25:43;100158.56;;;25.92;46.24
46291;BME280;32023;44.444;26.006;2022-09-09T17:28:11;100171.84;;;25.91;46.43
46291;BME280;32023;44.444;26.006;2022-09-09T17:30:38;100184.72;;;25.88;46.47
46291;BME280;32023;44.444;26.006;2022-09-09T17:33:04;100189.75;;;27.07;44.37
46291;BME280;32023;44.444;26.006;2022-09-09T17:35:45;100187.13;;;29.82;37.88
46291;BME280;32023;44.444;26.006;2022-09-09T17:38:30;100186.69;;;31.35;34.44
46291;BME280;32023;44.444;26.006;2022-09-09T17:41:09;100185.97;;;30.52;35.73
46291;BME280;32023;44.444;26.006;2022-09-09T17:43:47;100190.69;;;29.72;37.09
46291;BME280;32023;44.444;26.006;2022-09-09T17:46:21;100200.22;;;29.13;38.37
46291;BME280;32023;44.444;26.006;2022-09-09T17:48:50;100206.81;;;28.57;39.46
46291;BME280;32023;44.444;26.006;2022-09-09T17:51:21;100207.59;;;28.02;40.72
46291;BME280;32023;44.444;26.006;2022-09-09T17:53:55;100204.84;;;27.56;41.82
46291;BME280;32023;44.444;26.006;2022-09-09T17:56:25;100201.50;;;27.32;42.40
46291;BME280;32023;44.444;26.006;2022-09-09T17:58:54;100215.75;;;27.16;42.61
46291;BME280;32023;44.444;26.006;2022-09-09T18:01:24;100217.00;;;26.96;43.17